createdAt,value
2023-05-21T00:00:09.380Z,5.43
2023-05-21T00:03:14.478Z,4.65
2023-05-21T00:06:16.804Z,4.68
2023-05-21T00:09:18.818Z,4.50
2023-05-21T00:12:20.793Z,5.05
2023-05-21T00:15:22.789Z,5.20
2023-05-21T00:18:25.550Z,5.10
2023-05-21T00:21:27.591Z,4.60
2023-05-21T00:24:29.700Z,5.25
2023-05-21T00:27:31.736Z,4.80
2023-05-21T00:30:33.785Z,5.27
2023-05-21T00:33:35.744Z,4.40
2023-05-21T00:36:38.126Z,4.22
2023-05-21T00:39:40.166Z,4.22
2023-05-21T00:42:42.293Z,4.55
2023-05-21T00:45:48.512Z,4.37
2023-05-21T00:48:51.059Z,4.30
2023-05-21T00:51:54.903Z,4.90
2023-05-21T00:54:56.997Z,4.32
2023-05-21T00:57:59.020Z,4.78
2023-05-21T01:01:07.038Z,4.93
2023-05-21T01:04:09.634Z,4.72
2023-05-21T01:07:12.563Z,4.70
2023-05-21T01:10:14.534Z,4.90
2023-05-21T01:13:17.833Z,4.70
2023-05-21T01:16:20.095Z,4.53
2023-05-21T01:19:24.226Z,4.93
2023-05-21T01:22:29.266Z,5.13
2023-05-21T01:25:31.343Z,5.45
2023-05-21T01:28:34.577Z,4.20
2023-05-21T01:31:53.708Z,4.67
2023-05-21T01:35:09.607Z,4.22
2023-05-21T01:38:23.885Z,4.43
2023-05-21T01:41:27.222Z,4.32
2023-05-21T01:44:30.317Z,4.85
2023-05-21T01:47:33.129Z,4.30
2023-05-21T01:50:37.418Z,4.65
2023-05-21T01:53:40.698Z,4.50
2023-05-21T01:56:42.743Z,4.75
2023-05-21T01:59:45.621Z,4.50
2023-05-21T02:02:47.760Z,4.47
2023-05-21T02:05:52.026Z,4.50
2023-05-21T02:08:55.637Z,4.97
2023-05-21T02:11:58.315Z,4.68
2023-05-21T02:15:00.340Z,4.30
2023-05-21T02:18:02.679Z,4.43
2023-05-21T02:21:04.694Z,4.63
2023-05-21T02:24:07.021Z,4.72
2023-05-21T02:27:10.617Z,4.45
2023-05-21T02:30:14.563Z,4.57
2023-05-21T02:33:16.795Z,4.53
2023-05-21T02:36:19.600Z,4.00
2023-05-21T02:39:21.832Z,4.60
2023-05-21T02:42:24.319Z,4.68
2023-05-21T02:45:26.652Z,4.63
2023-05-21T02:48:28.698Z,4.03
2023-05-21T02:51:30.837Z,4.75
2023-05-21T02:54:32.873Z,5.00
2023-05-21T02:57:34.877Z,4.43
2023-05-21T03:00:36.880Z,4.85
2023-05-21T03:03:39.017Z,5.40
2023-05-21T03:06:41.073Z,4.05
2023-05-21T03:09:43.091Z,4.97
2023-05-21T03:12:45.589Z,4.40
2023-05-21T03:15:47.755Z,4.60
2023-05-21T03:18:49.765Z,4.90
2023-05-21T03:21:51.846Z,4.40
2023-05-21T03:24:53.898Z,4.65
2023-05-21T03:27:55.949Z,4.13
2023-05-21T03:31:16.462Z,4.28
2023-05-21T03:34:41.393Z,3.93
2023-05-21T03:37:43.713Z,3.97
2023-05-21T03:40:46.648Z,4.07
2023-05-21T03:43:48.669Z,4.07
2023-05-21T03:46:50.912Z,3.28
2023-05-21T03:50:03.044Z,4.07
2023-05-21T03:53:05.079Z,3.50
2023-05-21T03:56:07.538Z,4.25
2023-05-21T03:59:09.904Z,4.40
2023-05-21T04:02:12.114Z,3.92
2023-05-21T04:05:14.185Z,3.70
2023-05-21T04:08:16.379Z,3.83
2023-05-21T04:11:18.476Z,3.65
2023-05-21T04:14:20.479Z,3.45
2023-05-21T04:17:22.673Z,3.28
2023-05-21T04:20:25.414Z,3.13
2023-05-21T04:23:28.020Z,3.58
2023-05-21T04:26:34.042Z,3.33
2023-05-21T04:29:37.750Z,3.55
2023-05-21T04:32:39.951Z,3.55
2023-05-21T04:35:44.653Z,3.23
2023-05-21T04:38:46.681Z,3.33
2023-05-21T04:41:50.804Z,3.75
2023-05-21T04:44:55.544Z,3.28
2023-05-21T04:48:00.767Z,3.38
2023-05-21T04:51:05.849Z,3.43
2023-05-21T04:54:08.071Z,3.00
2023-05-21T04:57:10.726Z,3.78
2023-05-21T05:00:13.517Z,3.20
2023-05-21T05:03:18.338Z,3.53
2023-05-21T05:06:21.548Z,3.33
2023-05-21T05:09:25.285Z,3.70
2023-05-21T05:12:28.009Z,3.10
2023-05-21T05:15:30.351Z,3.15
2023-05-21T05:18:34.144Z,3.42
2023-05-21T05:21:36.419Z,3.23
2023-05-21T05:24:39.640Z,3.37
2023-05-21T05:27:41.593Z,3.40
2023-05-21T05:30:43.720Z,3.50
2023-05-21T05:33:56.635Z,2.92
2023-05-21T05:36:59.853Z,3.53
2023-05-21T05:40:02.370Z,3.23
2023-05-21T05:43:04.716Z,3.45
2023-05-21T05:46:06.693Z,2.90
2023-05-21T05:49:08.951Z,3.17
2023-05-21T05:52:10.948Z,3.20
2023-05-21T05:55:12.972Z,2.87
2023-05-21T05:58:15.062Z,3.55
2023-05-21T06:01:33.022Z,3.55
2023-05-21T06:04:35.052Z,3.03
2023-05-21T06:07:40.979Z,3.17
2023-05-21T06:10:42.992Z,3.50
2023-05-21T06:13:45.781Z,2.63
2023-05-21T06:16:48.821Z,3.47
2023-05-21T06:19:51.041Z,2.90
2023-05-21T06:22:53.487Z,3.00
2023-05-21T06:25:55.903Z,3.27
2023-05-21T06:28:58.355Z,3.03
2023-05-21T06:32:00.429Z,3.28
2023-05-21T06:35:02.715Z,3.42
2023-05-21T06:38:05.640Z,3.30
2023-05-21T06:41:07.788Z,3.50
2023-05-21T06:44:23.095Z,3.15
2023-05-21T06:47:42.018Z,2.95
2023-05-21T06:50:44.262Z,3.50
2023-05-21T06:53:47.120Z,3.20
2023-05-21T06:56:49.437Z,3.13
2023-05-21T06:59:51.959Z,3.15
2023-05-21T07:02:54.601Z,3.35
2023-05-21T07:05:57.798Z,2.92
2023-05-21T07:08:59.834Z,3.53
2023-05-21T07:12:02.350Z,3.30
2023-05-21T07:15:04.702Z,3.08
2023-05-21T07:18:07.191Z,3.63
2023-05-21T07:21:09.471Z,3.30
2023-05-21T07:24:12.531Z,3.00
2023-05-21T07:27:25.259Z,3.03
2023-05-21T07:30:28.280Z,3.10
2023-05-21T07:33:30.734Z,3.03
2023-05-21T07:36:33.737Z,2.90
2023-05-21T07:39:37.858Z,2.53
2023-05-21T07:42:41.127Z,2.70
2023-05-21T07:45:43.842Z,3.05
2023-05-21T07:48:46.606Z,2.80
2023-05-21T07:51:49.556Z,3.00
2023-05-21T07:54:51.753Z,3.20
2023-05-21T07:57:53.920Z,2.97
2023-05-21T08:01:01.878Z,3.03
2023-05-21T08:04:07.111Z,3.10
2023-05-21T08:07:10.818Z,2.85
2023-05-21T08:10:14.110Z,3.07
2023-05-21T08:13:17.356Z,2.73
2023-05-21T08:16:21.374Z,3.05
2023-05-21T08:19:23.758Z,2.58
2023-05-21T08:22:25.944Z,2.63
2023-05-21T08:25:28.049Z,3.00
2023-05-21T08:28:31.426Z,3.07
2023-05-21T08:31:38.452Z,3.13
2023-05-21T08:34:40.948Z,3.17
2023-05-21T08:38:05.899Z,2.70
2023-05-21T08:41:23.401Z,2.70
2023-05-21T08:44:27.597Z,2.67
2023-05-21T08:47:34.332Z,2.80
2023-05-21T08:50:37.450Z,2.33
2023-05-21T08:53:49.692Z,2.85
2023-05-21T08:56:53.500Z,2.60
2023-05-21T08:59:55.828Z,2.67
2023-05-21T09:03:02.854Z,2.65
2023-05-21T09:06:05.834Z,2.83
2023-05-21T09:09:18.766Z,2.83
2023-05-21T09:12:25.597Z,2.70
2023-05-21T09:15:27.957Z,2.33
2023-05-21T09:18:30.455Z,2.78
2023-05-21T09:21:39.805Z,3.25
2023-05-21T09:24:54.135Z,2.60
2023-05-21T09:27:56.337Z,2.90
2023-05-21T09:31:03.665Z,2.70
2023-05-21T09:34:05.954Z,3.10
2023-05-21T09:37:23.682Z,2.53
2023-05-21T09:40:29.601Z,2.80
2023-05-21T09:43:32.232Z,2.60
2023-05-21T09:46:39.860Z,2.80
2023-05-21T09:49:44.085Z,2.75
2023-05-21T09:52:46.318Z,2.55
2023-05-21T09:55:53.424Z,3.10
2023-05-21T09:58:57.570Z,2.93
2023-05-21T10:01:59.930Z,2.50
2023-05-21T10:05:05.456Z,3.22
2023-05-21T10:08:09.288Z,2.58
2023-05-21T10:11:12.344Z,2.67
2023-05-21T10:14:22.436Z,2.20
2023-05-21T10:17:25.737Z,2.30
2023-05-21T10:20:27.981Z,3.13
2023-05-21T10:23:30.307Z,2.47
2023-05-21T10:26:33.134Z,2.85
2023-05-21T10:29:37.189Z,2.87
2023-05-21T10:32:41.510Z,2.90
2023-05-21T10:35:46.153Z,2.63
2023-05-21T10:38:48.187Z,2.83
2023-05-21T10:42:14.113Z,2.88
2023-05-21T10:45:48.003Z,2.80
2023-05-21T10:49:06.166Z,3.07
2023-05-21T10:52:41.976Z,2.88
2023-05-21T10:56:30.906Z,2.80
2023-05-21T11:00:01.982Z,2.88
2023-05-21T11:03:04.892Z,3.00
2023-05-21T11:06:08.504Z,3.23
2023-05-21T11:09:14.608Z,2.95
2023-05-21T11:12:18.058Z,2.88
2023-05-21T11:15:20.740Z,2.90
2023-05-21T11:18:23.232Z,3.00
2023-05-21T11:21:30.592Z,2.77
2023-05-21T11:24:33.877Z,2.67
2023-05-21T11:27:40.577Z,2.65
2023-05-21T11:30:42.813Z,3.08
2023-05-21T11:33:47.780Z,2.83
2023-05-21T11:37:10.133Z,2.97
2023-05-21T11:40:26.073Z,3.50
2023-05-21T11:43:28.303Z,2.63
2023-05-21T11:46:31.111Z,2.80
2023-05-21T11:49:33.874Z,2.77
2023-05-21T11:52:35.851Z,3.27
2023-05-21T11:55:47.405Z,3.05
2023-05-21T11:58:49.374Z,2.70
2023-05-21T12:01:51.508Z,2.92
2023-05-21T12:04:53.755Z,2.93
2023-05-21T12:07:56.708Z,2.77
2023-05-21T12:11:00.111Z,2.80
2023-05-21T12:14:02.411Z,2.83
2023-05-21T12:17:05.384Z,3.03
2023-05-21T12:20:10.766Z,3.30
2023-05-21T12:23:39.317Z,3.27
2023-05-21T12:26:42.090Z,2.70
2023-05-21T12:29:46.685Z,2.83
2023-05-21T12:32:49.071Z,2.80
2023-05-21T12:35:52.585Z,2.50
2023-05-21T12:38:55.200Z,2.83
2023-05-21T12:41:57.273Z,2.78
2023-05-21T12:44:59.340Z,2.63
2023-05-21T12:48:02.295Z,2.45
2023-05-21T12:51:04.291Z,3.10
2023-05-21T12:54:12.929Z,3.17
2023-05-21T12:57:16.114Z,2.72
2023-05-21T13:00:23.910Z,2.70
2023-05-21T13:03:26.761Z,2.92
2023-05-21T13:06:28.773Z,2.97
2023-05-21T13:09:30.718Z,3.50
2023-05-21T13:12:34.165Z,3.28
2023-05-21T13:15:36.164Z,2.72
2023-05-21T13:18:38.267Z,3.03
2023-05-21T13:21:40.328Z,2.90
2023-05-21T13:24:42.304Z,2.87
2023-05-21T13:27:44.922Z,2.80
2023-05-21T13:30:47.064Z,3.13
2023-05-21T13:33:49.171Z,2.90
2023-05-21T13:36:51.297Z,2.97
2023-05-21T13:39:53.602Z,3.07
2023-05-21T13:42:55.682Z,3.13
2023-05-21T13:45:57.854Z,2.85
2023-05-21T13:49:00.755Z,3.00
2023-05-21T13:52:03.844Z,2.73
2023-05-21T13:55:06.562Z,2.53
2023-05-21T13:58:08.609Z,3.30
2023-05-21T14:01:10.855Z,2.95
2023-05-21T14:04:12.952Z,2.95
2023-05-21T14:07:14.911Z,3.03
2023-05-21T14:10:17.351Z,3.20
2023-05-21T14:13:20.246Z,2.95
2023-05-21T14:16:24.917Z,2.97
2023-05-21T14:19:27.077Z,2.63
2023-05-21T14:22:29.105Z,2.90
2023-05-21T14:25:31.137Z,3.10
2023-05-21T14:28:33.192Z,2.88
2023-05-21T14:31:35.484Z,2.80
2023-05-21T14:34:38.578Z,2.40
2023-05-21T14:37:41.394Z,3.10
2023-05-21T14:40:43.421Z,2.83
2023-05-21T14:43:45.484Z,2.80
2023-05-21T14:46:47.660Z,2.60
2023-05-21T14:49:51.644Z,3.00
2023-05-21T14:52:54.369Z,3.03
2023-05-21T14:55:56.403Z,3.27
2023-05-21T14:58:58.421Z,2.67
2023-05-21T15:02:00.436Z,2.50
2023-05-21T15:05:02.479Z,2.78
2023-05-21T15:08:05.855Z,2.70
2023-05-21T15:11:09.831Z,2.63
2023-05-21T15:14:12.532Z,2.47
2023-05-21T15:17:14.578Z,2.83
2023-05-21T15:20:17.044Z,2.50
2023-05-21T15:23:19.064Z,2.80
2023-05-21T15:26:21.706Z,3.10
2023-05-21T15:29:23.830Z,3.00
2023-05-21T15:32:26.128Z,2.65
2023-05-21T15:35:28.218Z,2.72
2023-05-21T15:38:30.592Z,2.27
2023-05-21T15:41:39.534Z,2.60
2023-05-21T15:44:41.976Z,2.33
2023-05-21T15:47:44.094Z,2.20
2023-05-21T15:50:46.141Z,2.38
2023-05-21T15:53:48.139Z,2.70
2023-05-21T15:56:50.518Z,2.90
2023-05-21T15:59:52.650Z,2.75
2023-05-21T16:02:54.697Z,2.55
2023-05-21T16:05:56.701Z,2.80
2023-05-21T16:08:59.753Z,3.17
2023-05-21T16:12:01.776Z,3.17
2023-05-21T16:15:04.437Z,3.10
2023-05-21T16:18:08.336Z,3.33
2023-05-21T16:21:10.618Z,3.65
2023-05-21T16:24:12.642Z,3.30
2023-05-21T16:27:14.726Z,2.70
2023-05-21T16:30:16.747Z,3.08
2023-05-21T16:33:19.442Z,3.10
2023-05-21T16:36:21.405Z,2.97
2023-05-21T16:39:23.417Z,3.30
2023-05-21T16:42:25.446Z,2.80
2023-05-21T16:45:27.394Z,3.13
2023-05-21T16:48:29.395Z,2.45
2023-05-21T16:51:31.626Z,2.60
2023-05-21T16:54:33.908Z,2.83
2023-05-21T16:57:36.251Z,3.27
2023-05-21T17:00:38.301Z,3.35
2023-05-21T17:03:43.087Z,2.70
2023-05-21T17:06:45.460Z,3.17
2023-05-21T17:09:47.563Z,2.57
2023-05-21T17:12:49.626Z,3.17
2023-05-21T17:15:51.737Z,2.90
2023-05-21T17:18:53.837Z,2.80
2023-05-21T17:21:56.275Z,3.08
2023-05-21T17:24:58.838Z,2.70
2023-05-21T17:28:00.831Z,2.70
2023-05-21T17:31:03.406Z,2.92
2023-05-21T17:34:05.497Z,2.90
2023-05-21T17:37:07.453Z,2.65
2023-05-21T17:40:09.905Z,2.90
2023-05-21T17:43:11.906Z,2.70
2023-05-21T17:46:17.482Z,2.70
2023-05-21T17:49:19.682Z,2.75
2023-05-21T17:52:21.740Z,3.00
2023-05-21T17:55:23.714Z,3.40
2023-05-21T17:58:25.720Z,2.80
2023-05-21T18:01:28.026Z,2.80
2023-05-21T18:04:30.936Z,3.53
2023-05-21T18:07:32.945Z,3.40
2023-05-21T18:10:34.903Z,3.40
2023-05-21T18:13:36.946Z,2.80
2023-05-21T18:16:39.074Z,3.10
2023-05-21T18:19:41.237Z,2.97
2023-05-21T18:22:44.650Z,3.03
2023-05-21T18:25:46.757Z,3.30
2023-05-21T18:28:49.873Z,2.67
2023-05-21T18:31:52.368Z,3.65
2023-05-21T18:34:54.638Z,3.58
2023-05-21T18:37:57.841Z,4.30
2023-05-21T18:41:03.308Z,2.93
2023-05-21T18:44:06.306Z,3.60
2023-05-21T18:47:08.961Z,3.38
2023-05-21T18:50:15.473Z,3.40
2023-05-21T18:53:17.922Z,3.25
2023-05-21T18:56:23.051Z,4.10
2023-05-21T18:59:25.626Z,2.93
2023-05-21T19:02:29.717Z,3.03
2023-05-21T19:05:32.342Z,3.13
2023-05-21T19:08:34.776Z,3.42
2023-05-21T19:11:37.619Z,3.03
2023-05-21T19:14:44.861Z,3.33
2023-05-21T19:17:48.144Z,3.22
2023-05-21T19:20:50.683Z,3.30
2023-05-21T19:23:54.058Z,3.35
2023-05-21T19:26:57.073Z,3.10
2023-05-21T19:29:59.545Z,3.30
2023-05-21T19:33:02.085Z,3.45
2023-05-21T19:36:04.675Z,3.20
2023-05-21T19:39:09.081Z,3.28
2023-05-21T19:42:11.711Z,3.50
2023-05-21T19:45:15.632Z,3.37
2023-05-21T19:48:18.083Z,3.20
2023-05-21T19:51:20.590Z,3.60
2023-05-21T19:54:23.301Z,3.38
2023-05-21T19:57:25.762Z,3.10
2023-05-21T20:00:29.346Z,3.60
2023-05-21T20:03:35.836Z,3.70
2023-05-21T20:06:38.605Z,3.70
2023-05-21T20:09:40.906Z,3.38
2023-05-21T20:12:43.073Z,3.50
2023-05-21T20:15:45.048Z,3.40
2023-05-21T20:18:47.548Z,3.42
2023-05-21T20:21:49.610Z,3.25
2023-05-21T20:24:51.600Z,3.90
2023-05-21T20:27:53.762Z,3.53
2023-05-21T20:31:00.797Z,3.80
2023-05-21T20:34:07.724Z,3.25
2023-05-21T20:37:09.951Z,3.53
2023-05-21T20:40:14.783Z,3.05
2023-05-21T20:43:18.593Z,3.07
2023-05-21T20:46:21.166Z,3.30
2023-05-21T20:49:24.943Z,3.10
2023-05-21T20:52:27.279Z,2.70
2023-05-21T20:55:34.673Z,3.53
2023-05-21T20:58:36.811Z,3.17
2023-05-21T21:01:40.831Z,3.30
2023-05-21T21:04:43.677Z,3.30
2023-05-21T21:07:45.802Z,3.30
2023-05-21T21:10:47.879Z,3.00
2023-05-21T21:13:50.110Z,3.37
2023-05-21T21:16:52.078Z,3.47
2023-05-21T21:19:54.012Z,3.10
2023-05-21T21:22:56.087Z,3.63
2023-05-21T21:25:58.077Z,3.53
2023-05-21T21:29:00.031Z,3.97
2023-05-21T21:32:02.313Z,3.47
2023-05-21T21:35:04.492Z,3.88
2023-05-21T21:38:06.569Z,4.13
2023-05-21T21:41:08.932Z,3.85
2023-05-21T21:44:10.923Z,3.93
2023-05-21T21:47:13.293Z,3.37
2023-05-21T21:50:15.572Z,4.10
2023-05-21T21:53:17.843Z,4.30
2023-05-21T21:56:19.861Z,3.38
2023-05-21T21:59:22.481Z,3.70
2023-05-21T22:02:24.564Z,4.30
2023-05-21T22:05:26.601Z,3.38
2023-05-21T22:08:28.863Z,3.50
2023-05-21T22:11:30.953Z,2.75
2023-05-21T22:14:33.137Z,2.67
2023-05-21T22:17:35.213Z,2.20
2023-05-21T22:20:38.420Z,2.35
2023-05-21T22:23:40.598Z,2.63
2023-05-21T22:26:42.593Z,2.15
2023-05-21T22:29:44.652Z,2.10
2023-05-21T22:32:48.150Z,2.15
2023-05-21T22:35:50.720Z,2.17
2023-05-21T22:38:52.745Z,2.10
2023-05-21T22:41:54.771Z,1.92
2023-05-21T22:44:56.893Z,2.23
2023-05-21T22:48:01.716Z,1.75
2023-05-21T22:51:04.695Z,1.83
2023-05-21T22:54:06.802Z,2.30
2023-05-21T22:57:09.106Z,2.17
2023-05-21T23:00:11.705Z,2.03
2023-05-21T23:03:13.791Z,1.80
2023-05-21T23:06:15.884Z,2.10
2023-05-21T23:09:17.860Z,2.30
2023-05-21T23:12:19.849Z,1.85
2023-05-21T23:15:22.711Z,2.27
2023-05-21T23:18:26.178Z,1.95
2023-05-21T23:21:28.538Z,1.75
2023-05-21T23:24:30.799Z,1.95
2023-05-21T23:27:32.771Z,1.90
2023-05-21T23:30:34.722Z,2.10
2023-05-21T23:33:36.677Z,1.80
2023-05-21T23:36:38.573Z,1.98
2023-05-21T23:39:40.547Z,1.30
2023-05-21T23:42:43.216Z,1.38
2023-05-21T23:45:45.448Z,1.90
2023-05-21T23:48:47.392Z,1.60
2023-05-21T23:51:52.318Z,1.40
2023-05-21T23:54:54.297Z,1.73
2023-05-21T23:57:56.271Z,1.92
